Disclaimer

Please do not use the information listed here in-flight or in-navigation, as they are not provided to us by the airports but are provided by volunteers, so they might be outdated.

Search


Regions


Airport information page

Radio informations:
Tower (TWR) - 30.1 MHz
Ground (GND) - 138.55 MHz
EMERG FM - 40.5 MHz
LANGEN DEP - 120.15 MHz
Automatic Terminal Information Service (ATIS) - 139.525 MHz
LANGEN ARR - 120.8 MHz
LANGEN INFO - 119.15 MHz

Airport informations:
Latitude: 50° 02' 59.35" N
Longitude: 008° 19' 31.43" E
Elevation: 461 feet - 141 meters
Operating hours: Remarks
Operating agency: U.S.ARMY
Timezone: UTC+1(+2DT) - Last Sunday in March to last Sunday in October
Fuel: JP-8, SemiKeroscene MIL Spec T-83133, without icing inhibitor

Runway information:
07/25 - 7065 x 120 feet< - >2153 x 37 meters

Recent METARs:
ETOU 201356Z AUTO 08014G21KT 9999 OVC026 05/M04 A2974 RMK AO2 CIG 024 RWY25 SLP078 T00461037 $
ETOU 201356Z AUTO 08014G21KT 9999 OVC026 05/M04 A2974 RMK AO2 CIG 024 RWY25 SLP078 T00461037 $
ETOU 201456Z AUTO 08012G16KT 9999 OVC021 04/M03 A2976 RMK AO2 SLP086 T00411034 50006 $

Airport on the map: